Time;durP1;ratioP1;P1;durP2;ratioP2;P2;SDS_P1;SDS_P2;PMS_P1;PMS_P2;Temp;Humidity;BMP_temperature;BMP_pressure;BME280_temperature;BME280_humidity;BME280_pressure;Samples;Min_cycle;Max_cycle;Signal;HPM_P1;HPM_P2
2022/09/08 00:02:20;;;;;;;3.88;2.33;;;;;;;23.73;52.11;100947.28;5036984;28;20045;-90
2022/09/08 00:04:46;;;;;;;4.60;2.40;;;;;;;23.73;52.14;100935.91;5032167;28;20051;-91
2022/09/08 00:07:11;;;;;;;5.00;2.25;;;;;;;23.73;51.77;100931.50;5069785;28;20051;-91
2022/09/08 00:09:37;;;;;;;3.83;2.35;;;;;;;23.73;51.91;100925.41;5031352;28;20509;-91
2022/09/08 00:12:03;;;;;;;4.45;2.08;;;;;;;23.72;51.89;100915.81;5053535;28;20078;-90
2022/09/08 00:14:32;;;;;;;4.00;2.40;;;;;;;23.72;51.95;100911.41;5055337;28;20591;-91
2022/09/08 00:16:58;;;;;;;4.25;2.40;;;;;;;23.73;51.72;100913.13;5074643;28;20052;-91
2022/09/08 00:19:23;;;;;;;3.90;1.90;;;;;;;23.73;52.02;100907.88;5058416;28;20043;-92
2022/09/08 00:21:48;;;;;;;5.13;2.30;;;;;;;23.72;51.88;100895.66;5036660;28;20042;-90
2022/09/08 00:24:14;;;;;;;3.75;2.10;;;;;;;23.73;51.59;100896.50;4995023;28;1296707;-90
2022/09/08 00:26:39;;;;;;;5.28;1.98;;;;;;;23.74;52.05;100895.59;5037584;28;20053;-90
2022/09/08 00:29:05;;;;;;;3.58;1.83;;;;;;;23.73;51.66;100876.34;5020487;28;20060;-92
2022/09/08 00:31:30;;;;;;;3.10;2.00;;;;;;;23.72;52.01;100868.53;5047744;28;20106;-90
2022/09/08 00:33:56;;;;;;;3.65;1.83;;;;;;;23.72;51.76;100882.50;5048342;28;20080;-91
2022/09/08 00:36:21;;;;;;;3.83;2.03;;;;;;;23.73;51.92;100878.13;5046702;28;20066;-92
2022/09/08 00:38:52;;;;;;;3.97;2.30;;;;;;;23.72;51.87;100874.63;5051505;28;20047;-91
2022/09/08 00:41:20;;;;;;;2.97;1.95;;;;;;;23.72;51.92;100869.38;5071489;28;20055;-91
2022/09/08 00:43:48;;;;;;;3.97;2.03;;;;;;;23.73;52.04;100867.59;5048657;28;20509;-92
2022/09/08 00:49:32;;;;;;;3.47;1.80;;;;;;;23.74;51.52;100877.22;5072830;28;20466;-91
2022/09/08 00:51:58;;;;;;;3.28;1.70;;;;;;;23.73;51.88;100873.72;5052560;28;20118;-92
2022/09/08 00:54:25;;;;;;;3.28;1.83;;;;;;;23.73;52.01;100873.72;5052498;28;21658;-90
2022/09/08 00:56:57;;;;;;;3.10;1.98;;;;;;;23.73;51.86;100871.09;5057306;28;20048;-90
2022/09/08 00:59:24;;;;;;;3.35;1.85;;;;;;;23.74;52.01;100871.97;5077921;28;20095;-90
2022/09/08 01:01:50;;;;;;;4.82;1.83;;;;;;;23.73;51.54;100867.59;5074752;28;20046;-91
2022/09/08 01:04:15;;;;;;;4.13;2.05;;;;;;;23.73;51.84;100859.72;5074030;28;20036;-90
2022/09/08 01:15:19;;;;;;;2.40;1.60;;;;;;;23.72;51.69;100842.25;5095214;28;20030;-91
2022/09/08 01:17:47;;;;;;;2.80;1.80;;;;;;;23.73;51.91;100847.44;5076556;28;20059;-91
2022/09/08 01:20:20;;;;;;;3.38;1.70;;;;;;;23.73;51.80;100842.19;5063037;28;20052;-90
2022/09/08 01:28:34;;;;;;;2.40;1.60;;;;;;;23.74;51.96;100838.66;5060459;28;21622;-90
2022/09/08 01:31:03;;;;;;;2.60;1.55;;;;;;;23.74;51.59;100840.44;5059080;28;20050;-90
2022/09/08 01:33:29;;;;;;;2.92;1.50;;;;;;;23.73;51.94;100844.81;5059116;28;20048;-90
2022/09/08 01:35:55;;;;;;;3.58;1.63;;;;;;;23.74;51.77;100843.06;5012913;28;20053;-90
2022/09/08 01:38:21;;;;;;;2.60;1.60;;;;;;;23.73;51.77;100839.56;5047995;28;20115;-92
2022/09/08 01:40:46;;;;;;;3.30;1.58;;;;;;;23.74;51.73;100843.91;5053025;28;20082;-93
2022/09/08 01:43:12;;;;;;;3.25;1.50;;;;;;;23.73;51.82;100836.91;5034260;28;20135;-92
2022/09/08 01:45:39;;;;;;;3.10;1.55;;;;;;;23.75;51.63;100839.50;5049814;28;20055;-91
2022/09/08 01:48:05;;;;;;;3.28;1.63;;;;;;;23.73;51.85;100839.56;5056885;28;20055;-91
2022/09/08 01:50:31;;;;;;;2.97;1.60;;;;;;;23.74;51.66;100835.19;5035134;28;20088;-91
2022/09/08 01:52:57;;;;;;;2.40;1.45;;;;;;;23.73;51.70;100846.59;5081245;28;20055;-92
2022/09/08 01:55:22;;;;;;;3.92;1.70;;;;;;;23.74;51.73;100843.91;5058860;28;20149;-90
2022/09/08 01:57:48;;;;;;;2.60;1.55;;;;;;;23.73;51.65;100839.56;5035017;28;20072;-90
2022/09/08 02:00:14;;;;;;;2.53;1.30;;;;;;;23.74;51.80;100845.69;5076935;28;20044;-91
2022/09/08 02:02:40;;;;;;;3.70;1.42;;;;;;;23.74;51.51;100843.06;5049072;28;20041;-90
2022/09/08 02:05:06;;;;;;;3.25;1.60;;;;;;;23.74;51.56;100848.31;5071925;28;20387;-92
2022/09/08 02:07:34;;;;;;;4.05;1.50;;;;;;;23.73;51.65;100849.22;5049612;28;20056;-91
2022/09/08 02:12:45;;;;;;;;;;;;;;;23.74;51.59;100853.56;5082178;28;20051;-92
2022/09/08 02:18:42;;;;;;;2.08;1.52;;;;;;;23.73;51.74;100849.22;5031834;23;20103;-83
2022/09/08 02:57:15;;;;;;;1.95;1.13;;;;;;;23.73;51.49;100825.56;5315495;23;20125;-79
2022/09/08 02:59:42;;;;;;;2.33;1.40;;;;;;;23.73;51.74;100825.56;4984083;28;20074;-79
2022/09/08 03:04:32;;;;;;;2.30;1.27;;;;;;;23.73;51.44;100820.31;4995636;28;20047;-79
2022/09/08 03:06:58;;;;;;;2.13;1.30;;;;;;;23.72;51.87;100818.59;4986971;28;20058;-79
2022/09/08 03:09:24;;;;;;;2.28;1.42;;;;;;;23.72;51.54;100816.81;4942971;28;21407;-80
2022/09/08 03:11:50;;;;;;;2.13;1.30;;;;;;;23.72;51.76;100824.72;4976749;28;20564;-79
2022/09/08 03:14:15;;;;;;;1.95;1.30;;;;;;;23.73;51.81;100822.94;4974407;28;20049;-79
2022/09/08 03:16:40;;;;;;;2.13;1.30;;;;;;;23.73;51.58;100815.06;4962956;28;20059;-79
2022/09/08 03:19:07;;;;;;;3.10;1.40;;;;;;;23.72;51.68;100813.34;4994002;28;20058;-79
2022/09/08 03:21:33;;;;;;;3.63;1.40;;;;;;;23.71;51.55;100807.22;4961032;28;20515;-79
2022/09/08 03:23:58;;;;;;;2.78;1.30;;;;;;;23.72;51.45;100803.69;4962168;28;20074;-80
2022/09/08 03:26:24;;;;;;;1.80;1.10;;;;;;;23.72;51.74;100808.09;4992858;28;20099;-78
2022/09/08 03:28:49;;;;;;;1.70;1.15;;;;;;;23.72;51.73;100801.06;4963931;28;20030;-79
2022/09/08 03:31:18;;;;;;;2.20;1.30;;;;;;;23.72;51.50;100800.22;4960830;28;20495;-78
2022/09/08 03:33:44;;;;;;;2.33;1.40;;;;;;;23.72;51.72;100800.22;4978307;28;20050;-79
2022/09/08 03:36:12;;;;;;;2.38;1.30;;;;;;;23.72;51.61;100794.97;4981921;28;20062;-78
2022/09/08 03:38:37;;;;;;;1.65;1.20;;;;;;;23.73;51.91;100799.28;4984531;28;20054;-80
2022/09/08 03:43:29;;;;;;;2.22;1.15;;;;;;;23.71;51.60;100783.56;4990086;28;21506;-79
2022/09/08 03:45:56;;;;;;;1.83;1.15;;;;;;;23.72;51.61;100789.72;4981819;28;20049;-79
2022/09/08 03:48:21;;;;;;;1.95;1.10;;;;;;;23.71;51.78;100783.56;4979676;28;20082;-79
2022/09/08 03:50:46;;;;;;;1.40;1.10;;;;;;;23.73;51.51;100783.53;4975489;28;20055;-79
2022/09/08 03:53:16;;;;;;;2.55;1.08;;;;;;;23.71;51.93;100788.81;4965763;28;20051;-78
2022/09/08 03:55:42;;;;;;;3.33;1.20;;;;;;;23.72;51.81;100782.69;4971833;28;20058;-79
2022/09/08 03:58:10;;;;;;;2.78;1.25;;;;;;;23.71;51.74;100767.81;4976379;28;20054;-79
2022/09/08 04:00:36;;;;;;;2.42;1.25;;;;;;;23.71;51.43;100769.59;4973173;28;20050;-80
2022/09/08 04:03:03;;;;;;;1.90;1.17;;;;;;;23.71;51.53;100780.09;4973037;28;20051;-80
2022/09/08 04:05:30;;;;;;;2.20;1.20;;;;;;;23.72;51.92;100780.03;4983786;28;20059;-79
2022/09/08 04:07:56;;;;;;;2.55;1.30;;;;;;;23.72;51.78;100784.44;5000484;28;20042;-80
2022/09/08 04:10:22;;;;;;;2.30;1.05;;;;;;;23.71;51.37;100778.31;4972821;28;20110;-77
2022/09/08 04:12:47;;;;;;;2.28;1.25;;;;;;;23.72;51.54;100781.81;4983477;28;20105;-79
2022/09/08 04:15:14;;;;;;;1.80;1.00;;;;;;;23.72;51.92;100784.44;4975055;28;20512;-78
2022/09/08 04:17:39;;;;;;;2.60;1.20;;;;;;;23.71;51.35;100787.97;4996606;28;20054;-80
2022/09/08 04:20:06;;;;;;;1.90;1.10;;;;;;;23.72;51.79;100787.09;4947574;28;20084;-79
2022/09/08 04:22:31;;;;;;;2.35;1.10;;;;;;;23.71;51.52;100785.34;4980184;28;20054;-79
2022/09/08 04:24:56;;;;;;;2.10;1.20;;;;;;;23.71;51.52;100790.59;4963500;28;20121;-79
2022/09/08 04:27:23;;;;;;;1.88;1.30;;;;;;;23.71;51.46;100791.44;4942039;28;20079;-79
2022/09/08 04:29:50;;;;;;;1.27;0.90;;;;;;;23.72;51.52;100800.22;4965836;28;20046;-79
2022/09/08 04:32:16;;;;;;;2.83;1.20;;;;;;;23.71;51.29;100794.06;4916981;28;20492;-79
2022/09/08 04:34:41;;;;;;;1.63;1.10;;;;;;;23.71;51.80;100796.72;4962355;28;20065;-79
2022/09/08 04:37:07;;;;;;;3.05;1.27;;;;;;;23.72;51.45;100794.97;4980208;28;20425;-79
2022/09/08 04:39:32;;;;;;;2.63;1.13;;;;;;;23.70;51.45;100789.75;4993551;28;20062;-78
2022/09/08 04:41:58;;;;;;;2.25;1.17;;;;;;;23.71;51.62;100785.34;4959220;28;20045;-79
2022/09/08 04:44:25;;;;;;;2.15;1.02;;;;;;;23.70;51.66;100789.75;4975129;28;20050;-79
2022/09/08 04:46:51;;;;;;;1.75;1.00;;;;;;;23.70;51.50;100787.13;4983772;28;20058;-79
2022/09/08 04:49:22;;;;;;;2.80;1.15;;;;;;;23.71;51.80;100780.09;4995003;28;20046;-79
2022/09/08 04:51:50;;;;;;;2.00;1.10;;;;;;;23.71;51.45;100766.97;4971791;28;20139;-79
2022/09/08 04:54:17;;;;;;;2.45;0.90;;;;;;;23.70;51.49;100765.25;4976909;28;20404;-78
2022/09/08 04:56:43;;;;;;;2.38;1.27;;;;;;;23.70;51.76;100757.38;4990944;28;20054;-80
2022/09/08 04:59:09;;;;;;;1.73;1.20;;;;;;;23.70;51.55;100752.97;4953406;28;20465;-80
2022/09/08 05:01:35;;;;;;;2.35;1.10;;;;;;;23.70;51.66;100755.59;4964566;28;20121;-80
2022/09/08 05:06:31;;;;;;;2.17;1.20;;;;;;;23.71;51.82;100752.03;5006269;28;20964;-79
2022/09/08 05:08:58;;;;;;;1.77;1.10;;;;;;;23.68;51.45;100756.56;4989430;28;20039;-77
2022/09/08 05:11:26;;;;;;;2.55;1.38;;;;;;;23.60;51.87;100757.72;4983476;28;20057;-78
2022/09/08 05:13:53;;;;;;;2.53;1.60;;;;;;;23.55;51.92;100762.25;4964016;28;20078;-78
2022/09/08 05:18:48;;;;;;;5.53;1.45;;;;;;;23.53;51.82;100771.97;5081475;27;1322391;-78
2022/09/08 05:21:14;;;;;;;5.22;1.83;;;;;;;23.51;51.98;100770.31;5092211;28;20520;-77
2022/09/08 05:23:40;;;;;;;3.50;1.98;;;;;;;23.50;52.09;100774.72;5075902;28;20128;-77
2022/09/08 05:26:07;;;;;;;4.15;1.90;;;;;;;23.49;52.09;100767.72;5075259;28;20473;-80
2022/09/08 05:28:39;;;;;;;7.50;2.42;;;;;;;23.46;52.87;100769.63;5091171;28;20168;-76
2022/09/08 05:31:07;;;;;;;9.75;1.88;;;;;;;23.49;52.72;100766.88;5110776;28;20052;-80
2022/09/08 05:33:34;;;;;;;4.13;1.75;;;;;;;23.57;52.73;100767.47;5090077;28;20853;-78
2022/09/08 05:36:00;;;;;;;5.57;1.80;;;;;;;23.59;52.61;100773.53;5075433;28;20046;-77
2022/09/08 05:38:26;;;;;;;3.60;1.60;;;;;;;23.61;52.76;100774.31;5090331;28;20497;-78
2022/09/08 05:40:51;;;;;;;7.07;2.38;;;;;;;23.61;52.31;100769.91;5064424;28;20131;-78
2022/09/08 05:43:18;;;;;;;7.38;2.50;;;;;;;23.62;52.51;100774.25;5079579;28;20104;-80
2022/09/08 05:45:45;;;;;;;7.10;2.92;;;;;;;23.63;52.59;100772.50;5098442;28;20513;-80
2022/09/08 05:48:11;;;;;;;8.98;3.05;;;;;;;23.61;52.60;100769.91;5097670;28;20082;-80
2022/09/08 05:50:36;;;;;;;9.95;2.72;;;;;;;23.63;52.54;100767.25;5078461;28;20077;-80
2022/09/08 05:53:02;;;;;;;8.45;3.17;;;;;;;23.61;52.69;100769.91;5097619;28;20065;-80
2022/09/08 05:55:28;;;;;;;9.65;3.05;;;;;;;23.62;52.39;100771.63;5114680;28;20047;-79
2022/09/08 05:57:54;;;;;;;9.05;3.35;;;;;;;23.60;52.70;100778.72;5080674;28;20137;-79
2022/09/08 06:00:21;;;;;;;15.13;3.50;;;;;;;23.60;52.39;100770.84;5060175;28;20055;-80
2022/09/08 06:02:53;;;;;;;9.88;3.45;;;;;;;23.60;52.50;100777.84;5079860;28;20440;-80
2022/09/08 06:05:23;;;;;;;9.57;3.15;;;;;;;23.58;52.56;100780.56;5094809;28;20055;-80
2022/09/08 06:07:49;;;;;;;10.68;4.05;;;;;;;23.58;52.77;100780.56;5095507;28;20071;-79
2022/09/08 06:10:16;;;;;;;9.20;3.00;;;;;;;23.58;52.43;100783.19;5091064;28;20048;-80
2022/09/08 06:12:41;;;;;;;8.85;2.90;;;;;;;23.59;52.70;100781.41;5092873;28;20047;-78
2022/09/08 06:15:08;;;;;;;6.95;2.40;;;;;;;23.58;52.61;100775.31;5072408;28;20101;-79
2022/09/08 06:17:35;;;;;;;9.40;3.13;;;;;;;23.58;52.54;100777.94;5086626;28;20055;-79
2022/09/08 06:20:00;;;;;;;5.53;2.83;;;;;;;23.58;52.46;100785.81;5089676;28;20047;-80
2022/09/08 06:22:29;;;;;;;7.28;3.00;;;;;;;23.57;52.53;100781.44;5087366;28;20387;-79
2022/09/08 06:24:54;;;;;;;5.95;2.50;;;;;;;23.57;52.72;100785.84;5091587;28;20058;-78
2022/09/08 06:27:37;;;;;;;8.98;2.53;;;;;;;23.56;52.36;100792.00;5078648;28;20039;-79
2022/09/08 06:30:11;;;;;;;9.57;2.83;;;;;;;23.56;52.56;100792.00;5078290;28;20120;-80
2022/09/08 06:33:02;;;;;;;6.47;2.50;;;;;;;23.55;52.48;100785.91;5082995;28;20056;-78
2022/09/08 06:35:35;;;;;;;7.47;2.40;;;;;;;23.55;52.67;100787.69;5096138;28;20109;-80
2022/09/08 06:40:40;;;;;;;7.45;2.50;;;;;;;23.55;52.69;100792.94;5099645;28;20051;-79
2022/09/08 06:43:12;;;;;;;6.88;2.28;;;;;;;23.55;52.57;100790.31;5082871;28;20115;-79
2022/09/08 06:45:44;;;;;;;6.88;2.53;;;;;;;23.55;52.20;100785.91;5081144;28;20056;-79
2022/09/08 06:50:51;;;;;;;5.30;2.00;;;;;;;23.56;52.46;100795.50;5099200;28;20048;-79
2022/09/08 06:53:22;;;;;;;5.40;1.98;;;;;;;23.56;52.44;100798.13;5082148;28;20055;-79
2022/09/08 06:56:06;;;;;;;6.30;2.25;;;;;;;23.56;52.50;100799.88;5081195;28;20048;-78
2022/09/08 06:58:32;;;;;;;3.22;1.80;;;;;;;23.55;52.50;100796.41;5079226;28;20069;-79
2022/09/08 07:01:09;;;;;;;6.30;1.90;;;;;;;23.54;52.50;100793.81;5063237;28;20047;-78
2022/09/08 07:03:37;;;;;;;4.93;2.05;;;;;;;23.53;52.47;100792.97;5077170;28;20063;-79
2022/09/08 07:09:14;;;;;;;3.97;1.70;;;;;;;23.52;52.30;100787.78;5087594;28;20097;-81
2022/09/08 07:12:01;;;;;;;3.03;1.70;;;;;;;23.53;52.27;100792.13;5050867;28;20087;-78
2022/09/08 07:14:37;;;;;;;4.22;1.95;;;;;;;23.53;52.25;100784.25;5074211;28;20098;-78
2022/09/08 07:17:06;;;;;;;3.78;1.55;;;;;;;23.52;52.30;100780.78;5076328;28;20055;-78
2022/09/08 07:19:49;;;;;;;5.18;1.70;;;;;;;23.53;52.51;100785.09;5070208;28;20049;-78
2022/09/08 07:22:42;;;;;;;4.50;1.73;;;;;;;23.53;52.38;100790.34;5053754;28;20056;-79
2022/09/08 07:25:08;;;;;;;3.63;1.40;;;;;;;23.55;52.19;100795.56;5074698;28;20127;-77
2022/09/08 07:27:34;;;;;;;3.38;1.45;;;;;;;23.54;52.08;100791.19;5073547;28;20086;-76
2022/09/08 07:30:03;;;;;;;3.88;1.42;;;;;;;23.54;52.14;100786.81;5044302;28;20056;-79
2022/09/08 07:32:35;;;;;;;3.45;1.33;;;;;;;23.56;51.94;100787.63;5060007;28;20044;-80
2022/09/08 07:35:04;;;;;;;3.65;1.60;;;;;;;23.57;51.79;100785.84;5081137;28;20032;-79
2022/09/08 07:37:50;;;;;;;3.80;1.80;;;;;;;23.58;51.68;100801.56;5074174;28;20044;-78
2022/09/08 07:40:20;;;;;;;4.05;1.60;;;;;;;23.60;51.65;100793.63;5076398;28;20044;-79
2022/09/08 07:42:50;;;;;;;4.85;1.50;;;;;;;23.64;51.71;100794.38;5078106;28;20080;-80
2022/09/08 07:45:16;;;;;;;2.70;1.42;;;;;;;23.65;51.78;100796.94;5084846;28;20048;-78
2022/09/08 07:48:14;;;;;;;4.38;1.45;;;;;;;23.66;51.75;100795.19;5082486;28;20057;-78
2022/09/08 07:50:56;;;;;;;4.03;1.60;;;;;;;23.66;51.96;100793.41;5063390;28;20056;-78
2022/09/08 07:53:31;;;;;;;3.72;1.40;;;;;;;23.63;51.91;100788.25;5078477;28;20106;-79
2022/09/08 07:56:08;;;;;;;6.60;1.65;;;;;;;23.63;52.01;100793.53;5079368;28;20072;-79
2022/09/08 07:58:55;;;;;;;3.20;1.55;;;;;;;23.60;51.96;100791.88;5077253;28;20059;-79
2022/09/08 08:01:56;;;;;;;3.67;1.40;;;;;;;23.60;52.06;100796.25;5076175;28;20060;-79
2022/09/08 08:04:50;;;;;;;5.47;1.77;;;;;;;23.59;52.16;100797.16;5072433;28;20075;-79
2022/09/08 08:07:25;;;;;;;3.65;1.40;;;;;;;23.59;51.89;100789.28;5073683;28;20055;-79
2022/09/08 08:10:03;;;;;;;3.13;1.30;;;;;;;23.59;51.88;100802.41;5072590;28;20386;-79
2022/09/08 08:12:47;;;;;;;4.30;1.40;;;;;;;23.60;52.01;100807.63;5069954;28;20044;-80
2022/09/08 08:17:57;;;;;;;4.47;1.48;;;;;;;23.64;51.99;100800.47;5061099;28;20139;-79
2022/09/08 08:20:31;;;;;;;3.17;1.13;;;;;;;23.62;51.88;100811.03;5068871;28;20045;-79
2022/09/08 08:26:00;;;;;;;4.40;1.50;;;;;;;23.63;52.10;100801.41;5092298;28;20044;-79
2022/09/08 08:28:25;;;;;;;3.30;1.50;;;;;;;23.64;52.02;100802.25;5075643;28;20063;-79
2022/09/08 08:31:12;;;;;;;3.53;1.67;;;;;;;23.66;51.84;100813.56;5080115;28;20044;-79
2022/09/08 08:33:43;;;;;;;3.20;1.50;;;;;;;23.68;52.10;100814.38;5075922;28;20131;-79
2022/09/08 08:36:12;;;;;;;2.90;1.40;;;;;;;23.70;51.82;100808.16;5078274;28;20051;-78
2022/09/08 08:38:46;;;;;;;5.78;1.52;;;;;;;23.73;51.92;100815.06;5074618;28;20066;-78
2022/09/08 08:41:14;;;;;;;3.83;1.52;;;;;;;23.72;51.80;100816.81;5076842;28;20074;-78
2022/09/08 08:44:05;;;;;;;4.30;1.65;;;;;;;23.73;51.80;100815.06;5076262;28;20048;-80
2022/09/08 08:46:52;;;;;;;2.78;1.48;;;;;;;23.73;51.87;100821.16;5071383;28;20053;-78
2022/09/08 08:49:32;;;;;;;3.55;1.55;;;;;;;23.71;51.52;100822.13;5072391;28;20052;-77
2022/09/08 08:51:58;;;;;;;3.13;1.60;;;;;;;23.70;52.04;100826.53;5074039;28;20067;-79
2022/09/08 08:54:30;;;;;;;5.18;1.67;;;;;;;23.70;51.94;100820.44;5073123;28;20049;-78
2022/09/08 08:57:14;;;;;;;3.47;1.83;;;;;;;23.69;51.96;100821.31;5077853;28;20055;-79
2022/09/08 08:59:52;;;;;;;4.30;1.88;;;;;;;23.70;51.98;100818.66;5066657;28;21297;-80
2022/09/08 09:02:44;;;;;;;4.03;1.50;;;;;;;23.72;51.81;100823.88;5077055;28;20048;-79
2022/09/08 09:07:53;;;;;;;3.45;1.90;;;;;;;23.67;51.64;100826.66;5077016;28;20069;-77
2022/09/08 09:10:49;;;;;;;3.63;1.67;;;;;;;23.65;52.05;100823.22;5092501;28;20063;-78
2022/09/08 09:13:28;;;;;;;2.85;1.70;;;;;;;23.78;51.90;100823.69;5077981;28;20032;-80
2022/09/08 09:19:08;;;;;;;3.45;2.00;;;;;;;24.00;50.99;100814.09;5080120;28;21948;-82
2022/09/08 09:21:48;;;;;;;3.95;1.90;;;;;;;24.01;51.02;100801.81;5097108;28;20183;-81
2022/09/08 09:24:20;;;;;;;4.15;2.35;;;;;;;24.06;50.76;100818.25;5082787;28;20071;-82
2022/09/08 09:26:53;;;;;;;5.30;2.47;;;;;;;24.05;51.14;100818.31;5085906;28;20048;-83
2022/09/08 09:29:24;;;;;;;3.47;2.03;;;;;;;24.01;51.05;100817.56;5104743;28;20044;-82
2022/09/08 09:32:11;;;;;;;3.80;1.90;;;;;;;24.06;50.79;100814.78;5086844;28;20052;-82
2022/09/08 09:34:58;;;;;;;3.80;2.00;;;;;;;24.06;51.07;100806.88;4977691;28;3110350;-83
2022/09/08 12:17:20;;;;;;;12.82;4.97;;;;;;;23.29;51.68;100783.34;4911695;29;20126;-81
2022/09/08 13:44:14;;;;;;;10.25;2.75;;;;;;;23.23;48.50;100770.41;5429336;23;20116;-83
2022/09/08 13:47:04;;;;;;;8.43;2.40;;;;;;;23.21;48.44;100765.19;4845054;29;20054;-84
2022/09/08 13:49:56;;;;;;;8.25;2.65;;;;;;;23.21;48.36;100767.81;4851207;29;20038;-84
2022/09/08 13:52:49;;;;;;;9.30;2.33;;;;;;;23.21;48.11;100765.19;4885273;29;20028;-82
2022/09/08 14:01:58;;;;;;;7.93;1.83;;;;;;;23.29;47.35;100762.31;4885838;29;20075;-81
2022/09/08 14:35:45;;;;;;;9.63;2.30;;;;;;;23.34;47.22;100768.25;5105943;23;20033;-83
2022/09/08 14:40:55;;;;;;;5.78;2.15;;;;;;;23.32;47.41;100773.59;4876965;29;21272;-78
2022/09/08 14:43:47;;;;;;;9.82;2.63;;;;;;;23.33;47.84;100767.41;4859735;29;20053;-77
2022/09/08 14:49:13;;;;;;;8.70;2.30;;;;;;;23.39;47.61;100771.59;4879152;29;20086;-78
2022/09/08 14:54:50;;;;;;;11.40;2.67;;;;;;;23.40;47.81;100768.91;4878458;29;20126;-78
2022/09/08 14:57:21;;;;;;;10.27;2.55;;;;;;;23.42;47.57;100764.47;4861447;29;20519;-78
2022/09/08 15:00:12;;;;;;;9.02;2.50;;;;;;;23.43;47.91;100773.22;4861570;29;20083;-78
2022/09/08 15:02:48;;;;;;;9.13;2.30;;;;;;;23.43;47.84;100762.72;4882549;29;21210;-78
2022/09/08 15:05:22;;;;;;;7.72;2.25;;;;;;;23.45;47.99;100760.00;4885218;29;20504;-77
2022/09/08 15:08:03;;;;;;;11.18;2.25;;;;;;;23.48;48.17;100762.56;4864915;29;20117;-78
2022/09/08 15:10:37;;;;;;;9.32;2.20;;;;;;;23.49;48.01;100759.84;4854172;29;20102;-78
2022/09/08 15:15:39;;;;;;;9.70;2.42;;;;;;;23.53;47.94;100760.59;4866991;29;20185;-77
2022/09/08 15:20:41;;;;;;;8.65;2.58;;;;;;;23.51;48.01;100765.06;4865180;29;20054;-78
2022/09/08 15:26:01;;;;;;;9.00;2.00;;;;;;;23.50;47.87;100771.22;4862259;29;20730;-77
2022/09/08 15:28:29;;;;;;;9.52;2.33;;;;;;;23.49;47.71;100765.09;4844060;29;20052;-78
2022/09/08 15:33:45;;;;;;;;;;;;;;;23.45;47.56;100765.25;4860767;29;20118;-78
2022/09/08 15:39:11;;;;;;;7.90;2.05;;;;;;;23.44;47.48;100753.91;4869119;29;20053;-79
2022/09/08 15:41:48;;;;;;;7.50;2.30;;;;;;;23.43;47.80;100749.59;4850396;29;20058;-79
2022/09/08 15:44:39;;;;;;;7.72;1.95;;;;;;;23.42;47.71;100755.72;4848685;29;20060;-78
2022/09/08 15:50:08;;;;;;;9.32;2.35;;;;;;;23.39;47.43;100759.31;4866376;29;20053;-78
2022/09/08 15:52:48;;;;;;;8.57;1.92;;;;;;;23.40;47.43;100766.28;4861613;29;20061;-79
2022/09/08 15:55:26;;;;;;;8.32;2.22;;;;;;;23.39;47.58;100768.97;4849370;29;20061;-79
2022/09/08 15:57:51;;;;;;;6.93;2.25;;;;;;;23.37;47.86;100768.19;4851709;29;20045;-80
2022/09/08 16:00:52;;;;;;;12.23;2.28;;;;;;;23.33;47.88;100766.56;4860651;29;20076;-79
2022/09/08 16:03:38;;;;;;;9.98;2.17;;;;;;;23.33;47.57;100777.06;4849960;29;20061;-81
2022/09/08 16:09:07;;;;;;;8.48;2.40;;;;;;;23.32;48.05;100768.34;4866940;29;20158;-81
2022/09/08 16:11:57;;;;;;;6.82;2.05;;;;;;;23.31;47.87;100777.09;4851786;29;20058;-80
2022/09/08 16:14:41;;;;;;;7.60;2.33;;;;;;;23.31;48.12;100771.00;4866396;29;20053;-79
2022/09/08 16:19:38;;;;;;;12.65;2.40;;;;;;;23.28;47.87;100776.34;4862591;29;20049;-81
2022/09/08 16:22:13;;;;;;;6.05;1.80;;;;;;;23.26;47.97;100780.81;4833925;29;20075;-81
2022/09/08 16:25:00;;;;;;;7.75;2.13;;;;;;;23.25;47.85;100773.84;4855718;29;21338;-79
2022/09/08 16:27:59;;;;;;;5.63;2.00;;;;;;;23.23;47.85;100773.03;4847930;29;20053;-80
2022/09/08 16:30:41;;;;;;;8.13;1.90;;;;;;;23.23;47.89;100771.25;4851064;29;20065;-79
2022/09/08 16:35:53;;;;;;;6.43;2.05;;;;;;;23.22;48.22;100773.97;4860315;29;20062;-79
2022/09/08 16:38:26;;;;;;;7.47;2.03;;;;;;;23.21;48.21;100765.19;4867053;29;20570;-78
2022/09/08 16:41:02;;;;;;;4.68;2.00;;;;;;;23.22;48.33;100768.72;4845389;29;20050;-79
2022/09/08 16:43:28;;;;;;;4.00;1.48;;;;;;;23.21;48.06;100767.81;4842374;29;20122;-78
2022/09/08 16:46:13;;;;;;;6.72;1.85;;;;;;;23.20;48.49;100761.72;4815132;29;20514;-80
2022/09/08 16:48:54;;;;;;;4.82;1.60;;;;;;;23.22;48.26;100772.19;4842013;29;20140;-79
2022/09/08 16:51:36;;;;;;;5.13;1.65;;;;;;;23.20;47.88;100764.34;4841003;29;20050;-79
2022/09/08 16:56:59;;;;;;;3.88;1.60;;;;;;;23.21;48.06;100757.31;4860474;29;20485;-78
2022/09/08 16:59:54;;;;;;;4.38;1.50;;;;;;;23.19;48.03;100765.28;4842847;29;20057;-79
2022/09/08 17:02:40;;;;;;;7.05;1.55;;;;;;;23.21;48.05;100754.69;4841566;29;20069;-79
2022/09/08 17:11:12;;;;;;;4.13;1.50;;;;;;;23.23;47.89;100752.03;4869272;29;20471;-78
2022/09/08 17:13:39;;;;;;;4.00;1.80;;;;;;;23.23;48.12;100752.03;4862075;29;20142;-77
2022/09/08 17:16:14;;;;;;;6.05;1.65;;;;;;;23.24;48.56;100753.75;4845581;29;20065;-77
2022/09/08 17:19:09;;;;;;;8.10;1.88;;;;;;;23.24;48.82;100761.63;4839973;29;20519;-78
2022/09/08 17:22:08;;;;;;;7.22;1.92;;;;;;;23.23;48.82;100758.13;4842110;29;20061;-77
2022/09/08 17:27:57;;;;;;;7.03;1.90;;;;;;;23.15;49.16;100758.41;4864484;29;20102;-80
2022/09/08 17:30:23;;;;;;;4.18;1.50;;;;;;;23.12;49.15;100758.50;4845544;29;20127;-80
2022/09/08 17:35:53;;;;;;;7.22;1.92;;;;;;;23.07;49.45;100765.69;4857670;29;20058;-78
2022/09/08 17:38:38;;;;;;;6.82;1.90;;;;;;;23.06;50.16;100763.97;4840436;29;20049;-79
2022/09/08 17:41:12;;;;;;;5.25;1.75;;;;;;;23.07;50.21;100762.22;4860050;29;20503;-79
2022/09/08 17:43:51;;;;;;;6.38;1.70;;;;;;;23.11;50.68;100758.56;4841332;29;20068;-79
2022/09/08 17:46:30;;;;;;;7.95;2.25;;;;;;;23.10;51.09;100760.31;4859071;29;20058;-80
2022/09/08 17:51:48;;;;;;;18.80;13.93;;;;;;;23.09;52.10;100766.50;4858002;29;20347;-79
2022/09/08 17:54:24;;;;;;;16.20;11.15;;;;;;;23.08;51.86;100753.41;4858008;29;20061;-80
2022/09/08 18:00:13;;;;;;;10.35;6.30;;;;;;;23.06;52.40;100758.72;4789533;29;1991717;-79
2022/09/08 18:03:07;;;;;;;10.70;4.30;;;;;;;23.02;52.08;100757.13;4855980;29;20091;-78
2022/09/08 18:05:36;;;;;;;7.53;3.30;;;;;;;22.99;52.37;100746.66;4839557;29;20079;-78
2022/09/08 18:11:03;;;;;;;9.30;2.50;;;;;;;22.92;52.09;100742.53;4858922;29;20045;-79
2022/09/08 18:13:46;;;;;;;6.57;2.20;;;;;;;22.91;52.12;100741.69;4867613;29;20053;-80
2022/09/08 18:24:01;;;;;;;7.97;2.00;;;;;;;22.84;52.20;100750.66;5564576;23;20037;-82
2022/09/08 18:34:59;;;;;;;5.20;1.80;;;;;;;22.94;51.80;100752.06;4881647;29;20129;-78
2022/09/08 18:37:26;;;;;;;5.47;2.17;;;;;;;22.94;51.72;100749.44;4883254;29;20164;-77
2022/09/08 18:39:52;;;;;;;7.40;2.30;;;;;;;22.89;51.97;100753.16;4857334;29;20064;-77
2022/09/08 18:42:42;;;;;;;7.22;2.13;;;;;;;22.88;51.83;100747.03;4870890;29;20053;-80
2022/09/08 18:48:08;;;;;;;7.32;2.58;;;;;;;22.88;51.83;100756.66;4864799;29;20050;-79
2022/09/08 18:50:46;;;;;;;8.18;2.33;;;;;;;22.91;51.68;100757.44;4864796;29;20855;-79
2022/09/08 18:55:46;;;;;;;6.80;2.40;;;;;;;22.93;51.89;100762.63;4874415;29;20792;-79
2022/09/08 19:01:00;;;;;;;5.32;1.90;;;;;;;22.93;51.42;100760.88;4863117;29;21605;-80
2022/09/08 19:03:58;;;;;;;6.00;1.95;;;;;;;22.93;51.84;100762.63;4854298;29;20045;-79
2022/09/08 19:06:27;;;;;;;6.57;2.20;;;;;;;22.94;51.83;100770.44;4881239;29;20053;-79
2022/09/08 19:08:58;;;;;;;6.68;2.30;;;;;;;22.94;51.64;100767.81;4866372;29;20088;-78
2022/09/08 19:11:58;;;;;;;6.82;1.98;;;;;;;22.94;51.98;100766.97;4864546;29;20064;-78
2022/09/08 19:14:30;;;;;;;6.22;2.10;;;;;;;22.91;51.81;100751.34;4867970;29;20144;-78
2022/09/08 19:19:40;;;;;;;5.60;2.03;;;;;;;22.91;51.63;100744.31;4858251;29;20061;-77
2022/09/08 19:22:06;;;;;;;7.00;2.00;;;;;;;22.90;51.51;100749.59;4831930;29;20658;-77
2022/09/08 19:24:35;;;;;;;6.18;2.05;;;;;;;22.89;51.82;100754.00;4858890;29;20466;-77